createdAt,value
2022-09-26T00:00:22.382Z,5.75
2022-09-26T00:02:25.093Z,8.05
2022-09-26T00:04:32.815Z,9.77
2022-09-26T00:06:37.182Z,8.68
2022-09-26T00:08:40.987Z,8.13
2022-09-26T00:10:44.992Z,5.18
2022-09-26T00:12:47.836Z,4.75
2022-09-26T00:14:50.518Z,5.03
2022-09-26T00:16:53.601Z,4.68
2022-09-26T00:18:58.784Z,4.75
2022-09-26T00:21:05.482Z,4.97
2022-09-26T00:23:08.195Z,5.03
2022-09-26T00:25:11.045Z,5.05
2022-09-26T00:27:15.121Z,5.00
2022-09-26T00:29:17.876Z,4.80
2022-09-26T00:31:23.851Z,4.70
2022-09-26T00:33:26.576Z,4.88
2022-09-26T00:35:29.266Z,4.35
2022-09-26T00:37:31.980Z,5.00
2022-09-26T00:39:34.933Z,4.53
2022-09-26T00:41:37.945Z,4.63
2022-09-26T00:43:44.055Z,4.40
2022-09-26T00:45:46.783Z,4.45
2022-09-26T00:47:58.095Z,4.40
2022-09-26T00:50:05.385Z,4.53
2022-09-26T00:52:11.645Z,4.30
2022-09-26T00:54:18.580Z,4.35
2022-09-26T00:56:24.473Z,5.75
2022-09-26T00:58:32.004Z,5.57
2022-09-26T01:00:37.589Z,4.30
2022-09-26T01:02:40.684Z,4.20
2022-09-26T01:04:46.564Z,3.90
2022-09-26T01:06:50.179Z,4.28
2022-09-26T01:08:57.302Z,4.05
2022-09-26T01:11:00.715Z,4.05
2022-09-26T01:13:04.149Z,4.32
2022-09-26T01:15:09.107Z,3.88
2022-09-26T01:17:13.587Z,4.95
2022-09-26T01:19:26.047Z,5.32
2022-09-26T01:21:54.503Z,8.07
2022-09-26T01:24:39.284Z,4.10
2022-09-26T01:27:18.337Z,4.10
2022-09-26T01:29:56.832Z,3.72
2022-09-26T01:32:28.215Z,4.10
2022-09-26T01:34:40.008Z,3.83
2022-09-26T01:37:03.242Z,3.80
2022-09-26T01:39:23.088Z,3.80
2022-09-26T01:41:37.693Z,3.78
2022-09-26T01:43:48.025Z,3.83
2022-09-26T01:45:55.104Z,4.15
2022-09-26T01:48:07.163Z,3.97
2022-09-26T01:50:20.728Z,3.35
2022-09-26T01:52:32.642Z,3.25
2022-09-26T01:54:38.859Z,3.38
2022-09-26T01:56:44.288Z,3.55
2022-09-26T01:58:52.559Z,3.33
2022-09-26T02:00:59.086Z,3.25
2022-09-26T02:03:06.690Z,2.92
2022-09-26T02:05:17.252Z,2.72
2022-09-26T02:07:25.937Z,2.95
2022-09-26T02:09:34.260Z,2.88
2022-09-26T02:11:42.596Z,2.60
2022-09-26T02:13:52.193Z,2.42
2022-09-26T02:15:58.712Z,2.80
2022-09-26T02:18:09.276Z,2.80
2022-09-26T02:20:16.192Z,2.78
2022-09-26T02:22:22.448Z,2.70
2022-09-26T02:24:25.925Z,2.40
2022-09-26T02:26:30.044Z,2.65
2022-09-26T02:28:35.852Z,2.72
2022-09-26T02:33:29.301Z,2.47
2022-09-26T02:35:50.201Z,2.55
2022-09-26T02:37:53.171Z,2.42
2022-09-26T02:40:01.115Z,2.53
2022-09-26T02:42:19.930Z,2.75
2022-09-26T02:44:42.195Z,2.50
2022-09-26T02:47:12.421Z,2.70
2022-09-26T02:49:40.588Z,2.65
2022-09-26T02:52:02.522Z,2.60
2022-09-26T02:54:22.325Z,2.70
2022-09-26T02:56:30.994Z,3.00
2022-09-26T02:58:47.745Z,2.53
2022-09-26T03:00:59.272Z,2.20
2022-09-26T03:03:08.733Z,2.30
2022-09-26T03:05:17.607Z,2.33
2022-09-26T03:07:25.448Z,2.15
2022-09-26T03:09:31.316Z,2.00
2022-09-26T03:11:35.851Z,2.40
2022-09-26T03:13:41.613Z,2.33
2022-09-26T03:15:51.821Z,2.40
2022-09-26T03:17:59.472Z,2.30
2022-09-26T03:20:11.295Z,2.10
2022-09-26T03:22:18.066Z,2.00
2022-09-26T03:24:20.953Z,1.92
2022-09-26T03:26:25.381Z,2.22
2022-09-26T03:28:36.836Z,2.00
2022-09-26T03:30:40.396Z,2.20
2022-09-26T03:33:06.503Z,1.90
2022-09-26T03:35:10.496Z,2.20
2022-09-26T03:37:13.351Z,2.10
2022-09-26T03:39:17.408Z,2.00
2022-09-26T03:41:46.377Z,2.08
2022-09-26T03:43:51.796Z,2.20
2022-09-26T03:45:55.134Z,2.03
2022-09-26T03:48:02.212Z,2.50
2022-09-26T03:50:06.452Z,2.45
2022-09-26T03:52:11.580Z,2.88
2022-09-26T03:54:15.267Z,7.28
2022-09-26T03:56:21.786Z,6.10
2022-09-26T03:58:25.114Z,3.13
2022-09-26T04:00:28.136Z,2.10
2022-09-26T04:02:30.910Z,1.92
2022-09-26T04:04:48.487Z,1.70
2022-09-26T04:06:51.995Z,2.20
2022-09-26T04:08:55.107Z,2.30
2022-09-26T04:11:04.526Z,2.13
2022-09-26T04:13:08.605Z,2.55
2022-09-26T04:15:12.930Z,1.90
2022-09-26T04:17:15.650Z,2.00
2022-09-26T04:19:21.149Z,2.22
2022-09-26T04:21:24.682Z,2.35
2022-09-26T04:23:31.058Z,3.28
2022-09-26T04:25:37.990Z,4.97
2022-09-26T04:27:42.176Z,3.40
2022-09-26T04:29:46.318Z,2.75
2022-09-26T04:32:03.727Z,2.50
2022-09-26T04:34:15.904Z,2.70
2022-09-26T04:36:19.531Z,2.25
2022-09-26T04:38:22.351Z,3.78
2022-09-26T04:40:25.163Z,3.10
2022-09-26T04:42:42.578Z,3.33
2022-09-26T04:44:48.208Z,3.25
2022-09-26T04:46:52.099Z,9.82
2022-09-26T04:49:00.053Z,9.63
2022-09-26T04:51:06.381Z,7.05
2022-09-26T04:53:09.254Z,6.13
2022-09-26T04:55:16.330Z,7.78
2022-09-26T04:57:20.047Z,4.30
2022-09-26T04:59:23.005Z,4.20
2022-09-26T05:01:40.053Z,3.20
2022-09-26T05:03:49.870Z,3.03
2022-09-26T05:05:54.508Z,3.15
2022-09-26T05:07:57.782Z,2.72
2022-09-26T05:10:00.792Z,2.95
2022-09-26T05:12:03.814Z,3.10
2022-09-26T05:14:08.912Z,3.13
2022-09-26T05:16:14.520Z,4.05
2022-09-26T05:18:19.087Z,5.93
2022-09-26T05:20:24.096Z,5.35
2022-09-26T05:22:36.419Z,7.43
2022-09-26T05:24:56.883Z,5.20
2022-09-26T05:27:01.576Z,5.40
2022-09-26T05:29:08.370Z,5.80
2022-09-26T05:31:26.370Z,3.75
2022-09-26T05:33:30.976Z,3.58
2022-09-26T05:35:35.467Z,3.22
2022-09-26T05:37:38.907Z,3.47
2022-09-26T05:39:59.837Z,3.72
2022-09-26T05:42:06.984Z,3.28
2022-09-26T05:44:10.676Z,3.88
2022-09-26T05:46:14.679Z,6.63
2022-09-26T05:48:23.344Z,4.63
2022-09-26T05:50:27.510Z,3.88
2022-09-26T05:52:31.062Z,3.40
2022-09-26T05:54:34.387Z,3.28
2022-09-26T05:56:43.972Z,3.03
2022-09-26T05:59:12.456Z,3.75
2022-09-26T06:01:35.076Z,4.03
2022-09-26T06:03:48.316Z,4.10
2022-09-26T06:06:04.688Z,3.75
2022-09-26T06:08:09.448Z,3.80
2022-09-26T06:10:20.310Z,3.63
2022-09-26T06:12:30.180Z,4.20
2022-09-26T06:14:33.115Z,3.65
2022-09-26T06:16:36.058Z,3.65
2022-09-26T06:18:40.820Z,3.35
2022-09-26T06:20:43.752Z,3.58
2022-09-26T06:22:49.438Z,3.25
2022-09-26T06:24:52.668Z,3.03
2022-09-26T06:26:56.157Z,3.03
2022-09-26T06:29:00.080Z,3.45
2022-09-26T06:31:10.759Z,3.20
2022-09-26T06:33:36.710Z,3.83
2022-09-26T06:36:01.964Z,3.40
2022-09-26T06:38:11.640Z,3.60
2022-09-26T06:40:16.403Z,3.40
2022-09-26T06:42:19.493Z,3.50
2022-09-26T06:44:31.331Z,3.90
2022-09-26T06:47:02.965Z,3.83
2022-09-26T06:49:10.887Z,3.80
2022-09-26T06:51:24.831Z,3.33
2022-09-26T06:53:30.840Z,3.10
2022-09-26T06:55:34.665Z,3.88
2022-09-26T06:57:40.329Z,3.95
2022-09-26T06:59:43.238Z,4.07
2022-09-26T07:02:07.371Z,3.90
2022-09-26T07:04:29.825Z,4.00
2022-09-26T07:06:50.987Z,4.00
2022-09-26T07:09:03.070Z,4.47
2022-09-26T07:11:56.619Z,3.53
2022-09-26T07:14:01.967Z,3.60
2022-09-26T07:16:05.802Z,3.70
2022-09-26T07:18:31.904Z,3.70
2022-09-26T07:20:56.675Z,4.72
2022-09-26T07:23:10.772Z,4.32
2022-09-26T07:25:15.704Z,3.90
2022-09-26T07:27:19.061Z,5.38
2022-09-26T07:29:23.164Z,5.18
2022-09-26T07:31:27.202Z,3.72
2022-09-26T07:33:49.953Z,3.15
2022-09-26T07:35:55.040Z,3.00
2022-09-26T07:37:59.034Z,3.55
2022-09-26T07:40:02.304Z,3.30
2022-09-26T07:42:09.697Z,3.38
2022-09-26T07:45:02.179Z,3.30
2022-09-26T07:46:54.119Z,3.20
2022-09-26T07:49:15.601Z,3.60
2022-09-26T07:51:39.070Z,3.63
2022-09-26T07:53:45.767Z,3.10
2022-09-26T07:56:07.249Z,3.38
2022-09-26T07:58:29.864Z,3.47
2022-09-26T08:01:12.047Z,3.72
2022-09-26T08:03:33.445Z,3.17
2022-09-26T08:05:40.074Z,3.15
2022-09-26T08:07:43.158Z,3.30
2022-09-26T08:09:50.625Z,3.85
2022-09-26T08:12:12.253Z,4.55
2022-09-26T08:14:49.121Z,3.55
2022-09-26T08:16:56.866Z,3.45
2022-09-26T08:19:01.687Z,3.90
2022-09-26T08:21:06.343Z,4.38
2022-09-26T08:23:09.213Z,4.32
2022-09-26T08:25:12.751Z,4.28
2022-09-26T08:27:32.388Z,4.30
2022-09-26T08:29:35.615Z,4.20
2022-09-26T08:31:40.458Z,4.00
2022-09-26T08:33:44.246Z,3.70
2022-09-26T08:35:48.658Z,3.78
2022-09-26T08:38:12.572Z,3.42
2022-09-26T08:40:15.416Z,4.65
2022-09-26T08:42:50.568Z,3.30
2022-09-26T08:45:38.125Z,3.22
2022-09-26T08:48:07.377Z,3.13
2022-09-26T08:50:23.620Z,3.60
2022-09-26T08:52:34.287Z,4.33
2022-09-26T08:54:40.923Z,4.10
2022-09-26T08:56:48.718Z,3.57
2022-09-26T08:58:55.549Z,2.80
2022-09-26T09:01:10.403Z,2.40
2022-09-26T09:03:36.989Z,2.40
2022-09-26T09:05:46.306Z,2.20
2022-09-26T09:07:51.860Z,3.47
2022-09-26T09:10:00.166Z,1.93
2022-09-26T09:12:24.397Z,2.43
2022-09-26T09:15:24.130Z,2.10
2022-09-26T09:17:48.481Z,1.10
2022-09-26T09:20:14.573Z,1.80
2022-09-26T09:23:14.725Z,1.40
2022-09-26T09:25:25.883Z,1.30
2022-09-26T09:28:02.498Z,1.50
2022-09-26T09:30:16.879Z,1.63
2022-09-26T09:32:42.073Z,1.53
2022-09-26T09:35:14.299Z,1.27
2022-09-26T09:37:51.972Z,1.20
2022-09-26T09:40:28.633Z,1.37
2022-09-26T09:42:40.337Z,1.27
2022-09-26T09:44:48.087Z,1.27
2022-09-26T09:46:52.329Z,1.30
2022-09-26T09:48:59.249Z,1.30
2022-09-26T09:51:18.814Z,1.80
2022-09-26T09:53:37.045Z,1.53
2022-09-26T09:55:49.643Z,1.60
2022-09-26T09:58:13.845Z,1.40
2022-09-26T10:00:18.763Z,1.00
2022-09-26T10:02:40.512Z,1.43
2022-09-26T10:05:06.218Z,1.40
2022-09-26T10:07:10.932Z,1.50
2022-09-26T10:09:38.983Z,1.63
2022-09-26T10:12:01.697Z,1.10
2022-09-26T10:14:42.584Z,1.60
2022-09-26T10:17:18.787Z,1.43
2022-09-26T10:19:45.112Z,1.83
2022-09-26T10:21:50.612Z,1.53
2022-09-26T10:23:55.508Z,1.40
2022-09-26T10:26:31.076Z,1.00
2022-09-26T10:28:37.760Z,1.23
2022-09-26T10:30:50.046Z,1.13
2022-09-26T10:33:00.226Z,1.23
2022-09-26T10:35:29.654Z,1.13
2022-09-26T10:37:32.688Z,0.97
2022-09-26T10:40:15.249Z,8.97
2022-09-26T10:42:21.196Z,1.20
2022-09-26T10:44:29.128Z,1.70
2022-09-26T10:46:59.218Z,1.10
2022-09-26T10:49:26.651Z,1.30
2022-09-26T10:51:54.538Z,1.70
2022-09-26T10:54:05.205Z,1.00
2022-09-26T10:56:12.896Z,1.40
2022-09-26T10:58:19.581Z,1.30
2022-09-26T11:00:37.779Z,1.50
2022-09-26T11:02:47.443Z,1.33
2022-09-26T11:05:15.038Z,1.10
2022-09-26T11:07:41.347Z,1.27
2022-09-26T11:10:02.231Z,1.20
2022-09-26T11:12:29.188Z,1.30
2022-09-26T11:14:45.781Z,1.70
2022-09-26T11:16:53.144Z,1.50
2022-09-26T11:19:02.971Z,1.73
2022-09-26T11:21:28.182Z,1.30
2022-09-26T11:23:39.601Z,1.63
2022-09-26T11:25:57.831Z,0.97
2022-09-26T11:28:09.547Z,1.10
2022-09-26T11:30:50.279Z,1.00
2022-09-26T11:33:00.954Z,1.10
2022-09-26T11:35:53.238Z,2.50
2022-09-26T11:38:11.100Z,1.20
2022-09-26T11:40:29.066Z,1.23
2022-09-26T11:42:45.015Z,1.13
2022-09-26T11:45:08.019Z,0.67
2022-09-26T11:48:03.003Z,0.70
2022-09-26T11:50:39.626Z,0.60
2022-09-26T11:53:06.259Z,3.17
2022-09-26T11:55:24.281Z,1.37
2022-09-26T11:57:39.020Z,1.00
2022-09-26T12:00:07.685Z,1.00
2022-09-26T12:02:37.249Z,1.07
2022-09-26T12:04:55.776Z,0.80
2022-09-26T12:07:08.222Z,1.37
2022-09-26T12:09:24.677Z,1.03
2022-09-26T12:11:37.288Z,1.20
2022-09-26T12:13:48.345Z,2.20
2022-09-26T12:15:59.391Z,2.00
2022-09-26T12:18:13.911Z,1.60
2022-09-26T12:20:27.636Z,1.10
2022-09-26T12:22:38.735Z,1.50
2022-09-26T12:24:49.641Z,1.47
2022-09-26T12:27:00.197Z,1.70
2022-09-26T12:29:24.282Z,1.30
2022-09-26T12:31:42.190Z,1.47
2022-09-26T12:34:17.077Z,1.47
2022-09-26T12:36:40.523Z,1.37
2022-09-26T12:38:58.053Z,1.30
2022-09-26T12:41:25.206Z,1.40
2022-09-26T12:44:00.015Z,1.40
2022-09-26T12:46:28.245Z,1.17
2022-09-26T12:49:04.222Z,1.10
2022-09-26T12:51:19.948Z,1.30
2022-09-26T12:53:38.216Z,1.57
2022-09-26T12:55:49.027Z,1.55
2022-09-26T12:58:05.964Z,4.23
2022-09-26T13:00:20.151Z,8.63
2022-09-26T13:02:47.115Z,7.33
2022-09-26T13:05:18.825Z,3.83
2022-09-26T13:07:42.206Z,4.40
2022-09-26T13:10:15.445Z,3.83
2022-09-26T13:12:35.472Z,1.40
2022-09-26T13:14:57.083Z,1.30
2022-09-26T13:17:10.860Z,1.70
2022-09-26T13:19:24.056Z,1.50
2022-09-26T13:21:45.460Z,1.40
2022-09-26T13:23:54.020Z,2.20
2022-09-26T13:26:00.808Z,1.60
2022-09-26T13:28:09.591Z,1.40
2022-09-26T13:30:17.019Z,1.63
2022-09-26T13:32:24.665Z,2.23
2022-09-26T13:34:32.216Z,1.87
2022-09-26T13:36:41.767Z,2.30
2022-09-26T13:38:53.036Z,2.00
2022-09-26T13:41:05.251Z,1.90
2022-09-26T13:43:21.655Z,1.40
2022-09-26T13:45:36.320Z,2.13
2022-09-26T13:47:59.926Z,1.67
2022-09-26T13:50:18.366Z,1.20
2022-09-26T13:52:44.604Z,1.50
2022-09-26T13:55:00.306Z,1.37
2022-09-26T13:57:32.678Z,1.63
2022-09-26T13:59:54.369Z,0.90
2022-09-26T14:02:20.445Z,1.10
2022-09-26T14:04:34.588Z,1.30
2022-09-26T14:06:37.524Z,1.00
2022-09-26T14:09:25.107Z,0.90
2022-09-26T14:11:46.044Z,1.30
2022-09-26T14:13:49.952Z,1.10
2022-09-26T14:16:06.353Z,1.30
2022-09-26T14:18:30.293Z,1.40
2022-09-26T14:20:40.514Z,1.53
2022-09-26T14:22:51.669Z,1.57
2022-09-26T14:24:57.417Z,1.07
2022-09-26T14:27:39.412Z,1.10
2022-09-26T14:29:50.507Z,1.10
2022-09-26T14:32:01.988Z,1.07
2022-09-26T14:34:14.506Z,0.93
2022-09-26T14:36:24.387Z,0.90
2022-09-26T14:38:27.180Z,0.80
2022-09-26T14:40:34.309Z,0.47
2022-09-26T14:42:40.812Z,0.60
2022-09-26T14:44:52.260Z,0.63
2022-09-26T14:46:56.986Z,0.50
2022-09-26T14:49:03.244Z,0.73
2022-09-26T14:51:28.498Z,0.70
2022-09-26T14:53:39.582Z,0.80
2022-09-26T14:55:57.834Z,0.50
2022-09-26T14:58:32.097Z,0.70
2022-09-26T15:00:39.404Z,1.00
2022-09-26T15:02:44.638Z,0.80
2022-09-26T15:04:51.546Z,1.23
2022-09-26T15:06:57.862Z,0.90
2022-09-26T15:09:10.400Z,2.25
2022-09-26T15:11:29.168Z,4.43
2022-09-26T15:13:37.945Z,3.33
2022-09-26T15:15:49.572Z,1.30
2022-09-26T15:17:57.471Z,1.20
2022-09-26T15:20:03.817Z,1.15
2022-09-26T15:22:13.459Z,0.93
2022-09-26T15:24:29.554Z,1.30
2022-09-26T15:26:37.081Z,1.00
2022-09-26T15:28:40.330Z,1.20
2022-09-26T15:30:45.138Z,1.10
2022-09-26T15:32:53.134Z,0.93
2022-09-26T15:34:57.145Z,1.83
2022-09-26T15:37:02.311Z,1.53
2022-09-26T15:39:35.545Z,1.30
2022-09-26T15:42:03.087Z,1.52
2022-09-26T15:44:09.950Z,1.58
2022-09-26T15:46:23.493Z,2.00
2022-09-26T15:48:31.035Z,3.10
2022-09-26T15:50:41.453Z,2.97
2022-09-26T15:52:50.435Z,2.25
2022-09-26T15:54:54.640Z,3.00
2022-09-26T15:57:03.006Z,2.35
2022-09-26T15:59:12.169Z,2.78
2022-09-26T16:01:17.543Z,2.10
2022-09-26T16:03:37.133Z,2.17
2022-09-26T16:05:40.014Z,1.73
2022-09-26T16:07:49.624Z,2.38
2022-09-26T16:09:52.790Z,2.20
2022-09-26T16:11:58.794Z,2.30
2022-09-26T16:14:03.429Z,1.90
2022-09-26T16:16:09.459Z,1.50
2022-09-26T16:18:26.437Z,1.90
2022-09-26T16:20:31.134Z,1.75
2022-09-26T16:22:44.617Z,3.60
2022-09-26T16:24:47.598Z,3.80
2022-09-26T16:26:53.641Z,2.77
2022-09-26T16:28:57.936Z,2.20
2022-09-26T16:31:16.053Z,2.23
2022-09-26T16:33:31.124Z,2.30
2022-09-26T16:35:35.966Z,2.50
2022-09-26T16:37:38.980Z,1.57
2022-09-26T16:39:42.323Z,1.53
2022-09-26T16:42:01.325Z,1.60
2022-09-26T16:44:10.498Z,1.87
2022-09-26T16:46:18.358Z,1.80
2022-09-26T16:48:39.317Z,1.40
2022-09-26T16:50:42.433Z,1.38
2022-09-26T16:52:45.927Z,1.50
2022-09-26T16:54:48.966Z,1.30
2022-09-26T16:56:52.712Z,1.50
2022-09-26T16:58:58.610Z,2.30
2022-09-26T17:01:19.080Z,1.90
2022-09-26T17:03:26.657Z,2.38
2022-09-26T17:05:29.649Z,1.50
2022-09-26T17:07:32.471Z,4.13
2022-09-26T17:09:35.327Z,1.85
2022-09-26T17:11:38.178Z,1.25
2022-09-26T17:13:42.455Z,1.75
2022-09-26T17:15:48.541Z,1.57
2022-09-26T17:17:54.178Z,1.98
2022-09-26T17:19:59.812Z,1.50
2022-09-26T17:22:02.688Z,2.00
2022-09-26T17:24:07.199Z,2.22
2022-09-26T17:26:18.100Z,2.30
2022-09-26T17:28:27.276Z,2.50
2022-09-26T17:30:30.173Z,2.10
2022-09-26T17:32:35.788Z,2.30
2022-09-26T17:34:38.719Z,2.28
2022-09-26T17:36:47.403Z,2.25
2022-09-26T17:38:50.610Z,3.15
2022-09-26T17:40:53.566Z,18.60
2022-09-26T17:42:59.222Z,34.65
2022-09-26T17:45:02.067Z,5.47
2022-09-26T17:47:07.189Z,2.20
2022-09-26T17:49:16.777Z,1.90
2022-09-26T17:51:21.711Z,1.90
2022-09-26T17:53:28.123Z,1.80
2022-09-26T17:55:32.033Z,2.22
2022-09-26T17:57:40.822Z,1.90
2022-09-26T17:59:44.842Z,1.83
2022-09-26T18:01:52.349Z,2.30
2022-09-26T18:03:59.765Z,1.48
2022-09-26T18:06:03.290Z,1.52
2022-09-26T18:08:15.195Z,1.52
2022-09-26T18:10:23.754Z,1.52
2022-09-26T18:12:26.851Z,2.13
2022-09-26T18:14:32.103Z,1.70
2022-09-26T18:16:35.242Z,1.40
2022-09-26T18:18:38.112Z,1.88
2022-09-26T18:20:41.995Z,1.90
2022-09-26T18:22:46.994Z,2.13
2022-09-26T18:24:52.734Z,2.03
2022-09-26T18:27:03.633Z,1.88
2022-09-26T18:29:08.135Z,1.85
2022-09-26T18:31:12.376Z,2.20
2022-09-26T18:33:16.670Z,2.33
2022-09-26T18:35:24.066Z,2.28
2022-09-26T18:37:27.209Z,2.35
2022-09-26T18:39:30.576Z,1.90
2022-09-26T18:41:35.267Z,1.70
2022-09-26T18:43:42.308Z,1.60
2022-09-26T18:45:45.280Z,1.48
2022-09-26T18:47:48.350Z,1.85
2022-09-26T18:49:51.258Z,2.33
2022-09-26T18:51:54.251Z,2.08
2022-09-26T18:53:57.110Z,2.53
2022-09-26T18:56:17.105Z,2.58
2022-09-26T18:58:25.222Z,2.05
2022-09-26T19:00:29.646Z,2.60
2022-09-26T19:02:38.261Z,2.63
2022-09-26T19:04:41.298Z,2.42
2022-09-26T19:06:46.917Z,3.63
2022-09-26T19:08:51.602Z,3.95
2022-09-26T19:10:55.199Z,2.13
2022-09-26T19:12:59.035Z,2.17
2022-09-26T19:15:01.816Z,3.78
2022-09-26T19:17:06.056Z,2.42
2022-09-26T19:19:08.910Z,2.45
2022-09-26T19:21:19.963Z,6.53
2022-09-26T19:23:23.201Z,2.85
2022-09-26T19:25:26.512Z,4.65
2022-09-26T19:27:33.144Z,3.55
2022-09-26T19:29:39.601Z,2.67
2022-09-26T19:31:43.605Z,4.03
2022-09-26T19:33:49.898Z,2.95
2022-09-26T19:35:53.077Z,2.17
2022-09-26T19:37:56.135Z,3.45
2022-09-26T19:39:59.000Z,3.22
2022-09-26T19:42:06.551Z,2.10
2022-09-26T19:44:09.524Z,2.03
2022-09-26T19:46:18.385Z,2.03
2022-09-26T19:48:23.964Z,2.33
2022-09-26T19:50:29.087Z,1.52
2022-09-26T19:52:32.525Z,2.10
2022-09-26T19:54:35.938Z,1.90
2022-09-26T19:56:38.748Z,1.60
2022-09-26T19:58:41.597Z,1.65
2022-09-26T20:00:44.798Z,2.20
2022-09-26T20:02:51.327Z,2.08
2022-09-26T20:04:54.211Z,1.80
2022-09-26T20:06:58.456Z,1.45
2022-09-26T20:09:02.011Z,1.50
2022-09-26T20:11:05.135Z,1.80
2022-09-26T20:13:08.012Z,1.25
2022-09-26T20:15:12.969Z,1.60
2022-09-26T20:17:22.075Z,1.70
2022-09-26T20:19:37.559Z,1.52
2022-09-26T20:21:40.354Z,1.40
2022-09-26T20:23:45.933Z,1.38
2022-09-26T20:25:48.938Z,1.58
2022-09-26T20:27:55.150Z,1.50
2022-09-26T20:30:16.797Z,1.63
2022-09-26T20:32:20.172Z,1.50
2022-09-26T20:34:23.049Z,1.33
2022-09-26T20:36:30.372Z,1.20
2022-09-26T20:38:38.734Z,1.48
2022-09-26T20:40:42.990Z,1.05
2022-09-26T20:42:48.561Z,1.10
2022-09-26T20:44:51.438Z,1.00
2022-09-26T20:46:58.933Z,1.30
2022-09-26T20:49:04.271Z,1.10
2022-09-26T20:51:10.437Z,0.75
2022-09-26T20:53:17.794Z,2.60
2022-09-26T20:55:21.080Z,3.78
2022-09-26T20:57:26.262Z,3.10
2022-09-26T20:59:29.346Z,2.83
2022-09-26T21:01:32.212Z,2.22
2022-09-26T21:03:35.125Z,2.50
2022-09-26T21:05:38.515Z,2.25
2022-09-26T21:07:41.618Z,2.00
2022-09-26T21:09:44.969Z,1.42
2022-09-26T21:11:49.110Z,1.67
2022-09-26T21:13:53.276Z,1.23
2022-09-26T21:15:56.055Z,2.83
2022-09-26T21:17:59.662Z,1.30
2022-09-26T21:20:03.168Z,1.40
2022-09-26T21:22:41.818Z,1.13
2022-09-26T21:24:49.095Z,1.10
2022-09-26T21:26:51.965Z,2.13
2022-09-26T21:28:56.868Z,0.80
2022-09-26T21:31:04.011Z,1.10
2022-09-26T21:33:07.049Z,1.52
2022-09-26T21:35:10.865Z,1.10
2022-09-26T21:37:13.701Z,1.00
2022-09-26T21:39:18.881Z,0.90
2022-09-26T21:41:22.051Z,1.05
2022-09-26T21:43:29.091Z,1.38
2022-09-26T21:45:33.803Z,0.95
2022-09-26T21:47:37.534Z,0.93
2022-09-26T21:49:40.592Z,0.50
2022-09-26T21:51:45.267Z,0.70
2022-09-26T21:53:54.187Z,0.88
2022-09-26T21:56:05.104Z,0.82
2022-09-26T21:58:13.713Z,1.40
2022-09-26T22:00:16.883Z,0.80
2022-09-26T22:02:21.553Z,1.00
2022-09-26T22:04:24.466Z,0.80
2022-09-26T22:06:27.339Z,1.15
2022-09-26T22:08:30.968Z,1.10
2022-09-26T22:10:34.032Z,0.90
2022-09-26T22:12:36.928Z,0.95
2022-09-26T22:14:39.903Z,0.90
2022-09-26T22:16:42.882Z,1.05
2022-09-26T22:18:47.211Z,0.70
2022-09-26T22:20:55.531Z,1.10
2022-09-26T22:22:58.356Z,1.30
2022-09-26T22:25:04.037Z,1.38
2022-09-26T22:27:06.891Z,1.42
2022-09-26T22:29:09.827Z,1.00
2022-09-26T22:31:13.662Z,1.48
2022-09-26T22:33:18.637Z,1.30
2022-09-26T22:35:23.056Z,1.20
2022-09-26T22:37:26.122Z,1.20
2022-09-26T22:39:29.197Z,0.95
2022-09-26T22:41:32.060Z,1.10
2022-09-26T22:43:35.923Z,0.93
2022-09-26T22:45:38.732Z,0.70
2022-09-26T22:47:41.812Z,1.20
2022-09-26T22:49:44.657Z,1.00
2022-09-26T22:51:48.869Z,0.80
2022-09-26T22:53:51.660Z,1.08
2022-09-26T22:55:55.717Z,0.68
2022-09-26T22:57:58.622Z,0.90
2022-09-26T23:00:01.905Z,1.48
2022-09-26T23:02:04.945Z,2.03
2022-09-26T23:04:07.782Z,2.58
2022-09-26T23:06:11.220Z,3.05
2022-09-26T23:08:15.419Z,3.55
2022-09-26T23:10:22.052Z,3.67
2022-09-26T23:12:25.022Z,3.33
2022-09-26T23:14:27.804Z,3.08
2022-09-26T23:16:30.693Z,2.75
2022-09-26T23:18:34.668Z,2.90
2022-09-26T23:20:39.164Z,3.25
2022-09-26T23:22:42.031Z,2.80
2022-09-26T23:24:46.333Z,3.40
2022-09-26T23:26:49.181Z,2.90
2022-09-26T23:28:53.754Z,2.60
2022-09-26T23:31:04.341Z,2.50
2022-09-26T23:33:07.791Z,2.28
2022-09-26T23:35:10.726Z,1.50
2022-09-26T23:37:13.677Z,1.67
2022-09-26T23:39:16.724Z,1.40
2022-09-26T23:41:21.260Z,1.30
2022-09-26T23:43:24.273Z,1.00
2022-09-26T23:45:27.798Z,1.45
2022-09-26T23:47:31.001Z,0.90
2022-09-26T23:49:33.831Z,1.00
2022-09-26T23:51:36.620Z,0.80
2022-09-26T23:53:39.477Z,0.77
2022-09-26T23:55:42.485Z,0.90
2022-09-26T23:57:46.643Z,1.00
2022-09-26T23:59:49.564Z,1.00
